CheckWX is a tool to help pilots better visualize weather data.  It is not intended as a substitute for an official pre-flight weather briefing.

19:10:00 UTC

KBPK TAF
Baxter County Airport
Mountain Home, Arkansas, USA
KBPK 171720Z 1718/1818 VRB03KT P6SM SKC FM181700 14007KT P6SM SKC

Oct-17@
18:00 UTC

Oct-17 @ 18:00 UTC

Oct-18@
17:00 UTC

Oct-18 @ 17:00 UTC

KBPK 171720Z 1718/1818 VRB03KT P6SM SKC
Wind
  • Variable at 3 KTS
Cloud Levels
  • Clear skies

Oct-18@
17:00 UTC

Oct-18 @ 17:00 UTC

Oct-18@
18:00 UTC

Oct-18 @ 18:00 UTC

FM181700 14007KT P6SM SKC

From

From Standard forecast or significant change

Wind
  • 140° at 7 KTS
Cloud Levels
  • Clear skies